sensor_id;sensor_type;location;lat;lon;timestamp;pressure;altitude;pressure_sealevel;temperature;humidity
83122;BME280;73002;47.238;9.006;2023-11-21T03:39:01;94420.66;;;11.51;53.92
83122;BME280;73002;47.238;9.006;2023-11-21T03:57:03;94419.28;;;10.95;56.03
83122;BME280;73002;47.238;9.006;2023-11-21T03:59:28;94423.13;;;11.06;55.69
83122;BME280;73002;47.238;9.006;2023-11-21T04:01:56;94427.09;;;11.15;54.97
83122;BME280;73002;47.238;9.006;2023-11-21T04:04:22;94424.09;;;10.92;56.45
83122;BME280;73002;47.238;9.006;2023-11-21T04:06:48;94414.69;;;10.98;55.71
83122;BME280;73002;47.238;9.006;2023-11-21T04:14:27;94426.06;;;10.70;56.11
83122;BME280;73002;47.238;9.006;2023-11-21T04:19:17;94423.09;;;10.93;56.05
83122;BME280;73002;47.238;9.006;2023-11-21T04:21:43;94435.88;;;10.81;56.18
83122;BME280;73002;47.238;9.006;2023-11-21T04:24:09;94438.28;;;10.76;56.88
83122;BME280;73002;47.238;9.006;2023-11-21T04:26:37;94448.31;;;10.86;56.59
83122;BME280;73002;47.238;9.006;2023-11-21T04:29:03;94453.09;;;10.82;57.00
83122;BME280;73002;47.238;9.006;2023-11-21T04:36:43;94445.47;;;10.61;57.63
83122;BME280;73002;47.238;9.006;2023-11-21T04:39:11;94445.81;;;10.44;58.01
83122;BME280;73002;47.238;9.006;2023-11-21T04:41:39;94450.44;;;10.55;57.98
83122;BME280;73002;47.238;9.006;2023-11-21T04:44:08;94462.03;;;10.60;57.42
83122;BME280;73002;47.238;9.006;2023-11-21T04:46:33;94452.69;;;10.72;57.04
83122;BME280;73002;47.238;9.006;2023-11-21T04:48:59;94455.69;;;10.75;57.21
83122;BME280;73002;47.238;9.006;2023-11-21T04:51:24;94466.28;;;10.81;57.48
83122;BME280;73002;47.238;9.006;2023-11-21T04:53:50;94463.44;;;10.62;58.52
83122;BME280;73002;47.238;9.006;2023-11-21T04:56:15;94456.84;;;10.53;58.77
83122;BME280;73002;47.238;9.006;2023-11-21T04:58:43;94460.25;;;10.53;59.26
83122;BME280;73002;47.238;9.006;2023-11-21T05:01:08;94470.25;;;10.63;59.70
83122;BME280;73002;47.238;9.006;2023-11-21T05:03:34;94461.41;;;10.44;60.11
83122;BME280;73002;47.238;9.006;2023-11-21T05:13:35;94470.09;;;10.30;61.38
83122;BME280;73002;47.238;9.006;2023-11-21T05:16:01;94481.97;;;10.39;61.08
83122;BME280;73002;47.238;9.006;2023-11-21T05:18:30;94468.19;;;10.39;61.07
83122;BME280;73002;47.238;9.006;2023-11-21T05:20:56;94480.72;;;10.28;61.39
83122;BME280;73002;47.238;9.006;2023-11-21T05:23:24;94472.78;;;10.43;60.82
83122;BME280;73002;47.238;9.006;2023-11-21T05:25:52;94486.63;;;10.50;60.45
83122;BME280;73002;47.238;9.006;2023-11-21T05:28:18;94492.78;;;10.43;60.56
83122;BME280;73002;47.238;9.006;2023-11-21T05:30:43;94478.78;;;10.37;60.93
83122;BME280;73002;47.238;9.006;2023-11-21T05:33:09;94497.00;;;10.50;60.49
83122;BME280;73002;47.238;9.006;2023-11-21T05:35:34;94494.88;;;10.26;60.94
83122;BME280;73002;47.238;9.006;2023-11-21T05:38:00;94484.88;;;10.23;60.71
83122;BME280;73002;47.238;9.006;2023-11-21T05:40:26;94495.59;;;10.06;61.47
83122;BME280;73002;47.238;9.006;2023-11-21T05:42:58;94487.25;;;10.17;60.72
83122;BME280;73002;47.238;9.006;2023-11-21T05:45:24;94493.66;;;10.15;60.88
83122;BME280;73002;47.238;9.006;2023-11-21T05:47:49;94491.06;;;10.15;60.80
83122;BME280;73002;47.238;9.006;2023-11-21T05:55:16;94500.00;;;10.06;61.08
83122;BME280;73002;47.238;9.006;2023-11-21T05:57:43;94504.09;;;9.87;61.97
83122;BME280;73002;47.238;9.006;2023-11-21T06:00:14;94510.34;;;9.99;61.52
83122;BME280;73002;47.238;9.006;2023-11-21T06:02:47;94512.78;;;10.42;60.38
83122;BME280;73002;47.238;9.006;2023-11-21T06:05:16;94505.81;;;10.14;61.09
83122;BME280;73002;47.238;9.006;2023-11-21T06:07:43;94512.88;;;10.27;60.61
83122;BME280;73002;47.238;9.006;2023-11-21T06:10:11;94515.84;;;10.17;60.97
83122;BME280;73002;47.238;9.006;2023-11-21T06:12:37;94513.63;;;10.14;60.84
83122;BME280;73002;47.238;9.006;2023-11-21T06:15:03;94521.88;;;10.25;60.77
83122;BME280;73002;47.238;9.006;2023-11-21T06:17:50;94528.28;;;10.29;60.99
83122;BME280;73002;47.238;9.006;2023-11-21T06:20:18;94525.34;;;10.32;60.37
83122;BME280;73002;47.238;9.006;2023-11-21T06:22:46;94518.81;;;10.14;60.83
83122;BME280;73002;47.238;9.006;2023-11-21T06:25:15;94525.63;;;10.15;60.81
83122;BME280;73002;47.238;9.006;2023-11-21T06:27:45;94518.03;;;10.14;60.33
83122;BME280;73002;47.238;9.006;2023-11-21T06:30:13;94531.16;;;10.06;60.43
83122;BME280;73002;47.238;9.006;2023-11-21T06:35:15;94525.97;;;10.06;60.24
83122;BME280;73002;47.238;9.006;2023-11-21T06:37:42;94532.75;;;10.35;59.15
83122;BME280;73002;47.238;9.006;2023-11-21T06:40:14;94519.66;;;10.22;59.20
83122;BME280;73002;47.238;9.006;2023-11-21T06:42:43;94517.94;;;10.01;60.05
83122;BME280;73002;47.238;9.006;2023-11-21T06:45:10;94535.19;;;10.08;60.23
83122;BME280;73002;47.238;9.006;2023-11-21T06:47:37;94517.41;;;9.77;61.12
83122;BME280;73002;47.238;9.006;2023-11-21T06:50:03;94531.59;;;9.53;62.14
83122;BME280;73002;47.238;9.006;2023-11-21T06:52:29;94538.81;;;9.57;62.54
83122;BME280;73002;47.238;9.006;2023-11-21T06:54:56;94523.53;;;9.41;63.41
83122;BME280;73002;47.238;9.006;2023-11-21T06:57:25;94517.38;;;8.99;63.94
83122;BME280;73002;47.238;9.006;2023-11-21T06:59:51;94541.50;;;9.43;62.98
83122;BME280;73002;47.238;9.006;2023-11-21T07:02:16;94538.41;;;9.54;63.09
83122;BME280;73002;47.238;9.006;2023-11-21T07:04:46;94539.56;;;9.51;63.10
83122;BME280;73002;47.238;9.006;2023-11-21T07:07:11;94537.94;;;9.22;63.15
83122;BME280;73002;47.238;9.006;2023-11-21T07:09:37;94549.41;;;9.34;62.89
83122;BME280;73002;47.238;9.006;2023-11-21T07:12:03;94542.97;;;9.30;62.94
83122;BME280;73002;47.238;9.006;2023-11-21T07:14:31;94549.78;;;9.53;61.62
83122;BME280;73002;47.238;9.006;2023-11-21T07:16:57;94556.00;;;9.58;61.83
83122;BME280;73002;47.238;9.006;2023-11-21T07:19:23;94552.09;;;9.69;62.16
83122;BME280;73002;47.238;9.006;2023-11-21T07:21:51;94567.22;;;9.87;61.52
83122;BME280;73002;47.238;9.006;2023-11-21T07:24:17;94563.63;;;9.88;61.99
83122;BME280;73002;47.238;9.006;2023-11-21T07:26:43;94553.75;;;9.77;61.73
83122;BME280;73002;47.238;9.006;2023-11-21T07:29:08;94545.94;;;9.49;61.97
83122;BME280;73002;47.238;9.006;2023-11-21T07:31:34;94555.31;;;9.71;62.23
83122;BME280;73002;47.238;9.006;2023-11-21T07:34:00;94552.41;;;9.88;62.10
83122;BME280;73002;47.238;9.006;2023-11-21T07:36:26;94547.19;;;9.81;61.60
83122;BME280;73002;47.238;9.006;2023-11-21T07:38:52;94551.81;;;9.86;62.24
83122;BME280;73002;47.238;9.006;2023-11-21T07:41:17;94550.75;;;10.08;60.38
83122;BME280;73002;47.238;9.006;2023-11-21T07:43:44;94545.25;;;9.62;61.40
83122;BME280;73002;47.238;9.006;2023-11-21T07:46:11;94563.31;;;9.98;60.81
83122;BME280;73002;47.238;9.006;2023-11-21T07:48:38;94549.31;;;9.71;61.03
83122;BME280;73002;47.238;9.006;2023-11-21T07:51:04;94547.19;;;9.53;61.43
83122;BME280;73002;47.238;9.006;2023-11-21T07:53:35;94562.81;;;9.59;61.34
83122;BME280;73002;47.238;9.006;2023-11-21T07:56:07;94557.00;;;9.57;61.17
83122;BME280;73002;47.238;9.006;2023-11-21T07:58:37;94550.38;;;9.55;60.74
83122;BME280;73002;47.238;9.006;2023-11-21T08:01:03;94555.66;;;9.62;60.66
83122;BME280;73002;47.238;9.006;2023-11-21T08:03:29;94547.94;;;9.47;59.43
83122;BME280;73002;47.238;9.006;2023-11-21T08:06:00;94543.34;;;9.49;59.56
83122;BME280;73002;47.238;9.006;2023-11-21T08:08:25;94559.69;;;9.71;59.98
83122;BME280;73002;47.238;9.006;2023-11-21T08:10:52;94558.88;;;9.92;59.58
83122;BME280;73002;47.238;9.006;2023-11-21T08:13:24;94546.25;;;9.89;59.36
83122;BME280;73002;47.238;9.006;2023-11-21T08:15:50;94550.69;;;9.95;59.69
83122;BME280;73002;47.238;9.006;2023-11-21T08:18:16;94547.75;;;9.76;60.76
83122;BME280;73002;47.238;9.006;2023-11-21T08:20:44;94561.69;;;9.97;60.40
83122;BME280;73002;47.238;9.006;2023-11-21T08:23:16;94554.50;;;9.99;60.08
83122;BME280;73002;47.238;9.006;2023-11-21T08:25:45;94562.44;;;9.91;60.39
83122;BME280;73002;47.238;9.006;2023-11-21T08:28:11;94561.91;;;9.24;62.77
83122;BME280;73002;47.238;9.006;2023-11-21T08:30:37;94563.88;;;9.22;63.20
83122;BME280;73002;47.238;9.006;2023-11-21T08:33:03;94559.91;;;9.48;62.23
83122;BME280;73002;47.238;9.006;2023-11-21T08:35:29;94558.59;;;9.58;61.52
83122;BME280;73002;47.238;9.006;2023-11-21T08:37:55;94554.09;;;9.67;61.75
83122;BME280;73002;47.238;9.006;2023-11-21T08:40:21;94551.53;;;9.74;61.96
83122;BME280;73002;47.238;9.006;2023-11-21T08:42:47;94568.84;;;9.88;61.30
83122;BME280;73002;47.238;9.006;2023-11-21T08:45:16;94568.19;;;9.58;61.38
83122;BME280;73002;47.238;9.006;2023-11-21T08:47:43;94568.00;;;9.59;62.16
83122;BME280;73002;47.238;9.006;2023-11-21T08:50:09;94576.09;;;9.50;62.05
83122;BME280;73002;47.238;9.006;2023-11-21T08:52:37;94564.34;;;9.75;61.95
83122;BME280;73002;47.238;9.006;2023-11-21T08:57:28;94571.03;;;9.91;61.62
83122;BME280;73002;47.238;9.006;2023-11-21T08:59:54;94587.38;;;9.85;61.29
83122;BME280;73002;47.238;9.006;2023-11-21T09:02:23;94573.69;;;9.70;61.03
83122;BME280;73002;47.238;9.006;2023-11-21T09:04:50;94587.19;;;9.87;60.49
83122;BME280;73002;47.238;9.006;2023-11-21T09:07:20;94585.06;;;9.97;60.17
83122;BME280;73002;47.238;9.006;2023-11-21T09:09:48;94567.53;;;9.77;60.01
83122;BME280;73002;47.238;9.006;2023-11-21T09:12:15;94565.50;;;10.01;59.50
83122;BME280;73002;47.238;9.006;2023-11-21T09:14:41;94573.63;;;10.20;59.64
83122;BME280;73002;47.238;9.006;2023-11-21T09:17:08;94581.06;;;9.94;60.89
83122;BME280;73002;47.238;9.006;2023-11-21T09:19:39;94584.06;;;10.26;60.21
83122;BME280;73002;47.238;9.006;2023-11-21T09:22:05;94589.28;;;10.26;59.85
83122;BME280;73002;47.238;9.006;2023-11-21T09:24:32;94593.09;;;10.02;61.07
83122;BME280;73002;47.238;9.006;2023-11-21T09:26:57;94583.50;;;9.74;61.30
83122;BME280;73002;47.238;9.006;2023-11-21T09:29:23;94595.34;;;10.05;60.66
83122;BME280;73002;47.238;9.006;2023-11-21T09:34:14;94581.66;;;10.60;58.09
83122;BME280;73002;47.238;9.006;2023-11-21T09:36:40;94580.13;;;10.72;58.30
83122;BME280;73002;47.238;9.006;2023-11-21T09:39:06;94588.91;;;10.71;57.64
83122;BME280;73002;47.238;9.006;2023-11-21T09:41:43;94597.38;;;10.80;56.75
83122;BME280;73002;47.238;9.006;2023-11-21T09:44:13;94597.09;;;11.16;57.77
83122;BME280;73002;47.238;9.006;2023-11-21T09:46:42;94590.50;;;11.27;58.67
83122;BME280;73002;47.238;9.006;2023-11-21T09:49:11;94598.16;;;11.48;58.23
83122;BME280;73002;47.238;9.006;2023-11-21T09:51:45;94592.94;;;11.42;57.99
83122;BME280;73002;47.238;9.006;2023-11-21T09:54:14;94591.97;;;11.63;57.32
83122;BME280;73002;47.238;9.006;2023-11-21T09:56:41;94599.34;;;11.46;57.67
83122;BME280;73002;47.238;9.006;2023-11-21T09:59:11;94596.97;;;11.64;57.88
83122;BME280;73002;47.238;9.006;2023-11-21T10:01:38;94588.28;;;11.17;60.50
83122;BME280;73002;47.238;9.006;2023-11-21T10:04:04;94588.34;;;11.50;57.97
83122;BME280;73002;47.238;9.006;2023-11-21T10:06:38;94591.97;;;11.63;56.02
83122;BME280;73002;47.238;9.006;2023-11-21T10:09:04;94591.34;;;11.41;55.29
83122;BME280;73002;47.238;9.006;2023-11-21T10:11:40;94597.31;;;11.34;55.94
83122;BME280;73002;47.238;9.006;2023-11-21T10:16:38;94592.97;;;11.75;56.91
83122;BME280;73002;47.238;9.006;2023-11-21T10:19:04;94578.34;;;11.61;56.11
83122;BME280;73002;47.238;9.006;2023-11-21T10:21:33;94583.34;;;11.76;54.78
83122;BME280;73002;47.238;9.006;2023-11-21T10:23:59;94588.16;;;11.85;55.48
83122;BME280;73002;47.238;9.006;2023-11-21T10:26:26;94593.00;;;11.95;55.11
83122;BME280;73002;47.238;9.006;2023-11-21T10:29:00;94576.16;;;11.71;55.79
83122;BME280;73002;47.238;9.006;2023-11-21T10:31:32;94564.94;;;11.97;54.42
83122;BME280;73002;47.238;9.006;2023-11-21T10:39:04;94557.91;;;12.04;56.09
83122;BME280;73002;47.238;9.006;2023-11-21T10:41:29;94576.56;;;11.95;56.17
83122;BME280;73002;47.238;9.006;2023-11-21T10:43:57;94576.97;;;11.91;57.33
83122;BME280;73002;47.238;9.006;2023-11-21T10:46:26;94576.53;;;12.15;55.44
83122;BME280;73002;47.238;9.006;2023-11-21T10:48:53;94574.34;;;12.05;56.13
83122;BME280;73002;47.238;9.006;2023-11-21T10:51:18;94564.53;;;11.87;55.81
83122;BME280;73002;47.238;9.006;2023-11-21T10:53:47;94571.13;;;12.03;55.40
83122;BME280;73002;47.238;9.006;2023-11-21T10:56:18;94559.31;;;11.73;54.69
83122;BME280;73002;47.238;9.006;2023-11-21T10:58:48;94576.94;;;11.71;55.42
83122;BME280;73002;47.238;9.006;2023-11-21T11:13:15;94571.34;;;12.01;55.63
83122;BME280;73002;47.238;9.006;2023-11-21T11:15:42;94562.75;;;11.94;56.31
83122;BME280;73002;47.238;9.006;2023-11-21T11:18:11;94575.53;;;12.16;55.17
83122;BME280;73002;47.238;9.006;2023-11-21T11:20:42;94569.53;;;12.08;55.22
83122;BME280;73002;47.238;9.006;2023-11-21T11:25:56;94560.88;;;12.35;55.51
83122;BME280;73002;47.238;9.006;2023-11-21T11:28:54;94563.06;;;12.31;54.89
83122;BME280;73002;47.238;9.006;2023-11-21T11:38:55;94558.50;;;12.06;54.83
83122;BME280;73002;47.238;9.006;2023-11-21T11:41:30;94551.72;;;11.92;56.92
83122;BME280;73002;47.238;9.006;2023-11-21T11:44:00;94554.13;;;12.00;56.32
83122;BME280;73002;47.238;9.006;2023-11-21T11:46:45;94567.13;;;12.07;54.53
83122;BME280;73002;47.238;9.006;2023-11-21T11:49:29;94557.13;;;11.97;55.10
83122;BME280;73002;47.238;9.006;2023-11-21T11:55:20;94555.47;;;12.16;56.89
83122;BME280;73002;47.238;9.006;2023-11-21T11:57:48;94563.31;;;12.16;56.16
83122;BME280;73002;47.238;9.006;2023-11-21T12:00:20;94555.31;;;12.04;56.10
83122;BME280;73002;47.238;9.006;2023-11-21T12:02:53;94552.09;;;12.22;56.57
83122;BME280;73002;47.238;9.006;2023-11-21T12:10:40;94547.66;;;12.23;56.58
83122;BME280;73002;47.238;9.006;2023-11-21T12:13:09;94550.28;;;12.09;57.73
83122;BME280;73002;47.238;9.006;2023-11-21T12:15:35;94557.13;;;11.97;56.81
83122;BME280;73002;47.238;9.006;2023-11-21T12:18:01;94551.25;;;12.22;57.90
83122;BME280;73002;47.238;9.006;2023-11-21T12:20:27;94555.47;;;12.16;58.96
83122;BME280;73002;47.238;9.006;2023-11-21T12:22:57;94551.63;;;12.45;57.73
83122;BME280;73002;47.238;9.006;2023-11-21T12:25:30;94557.69;;;12.12;58.81
83122;BME280;73002;47.238;9.006;2023-11-21T12:27:58;94570.38;;;11.96;60.63
83122;BME280;73002;47.238;9.006;2023-11-21T12:30:25;94569.13;;;12.05;59.89
83122;BME280;73002;47.238;9.006;2023-11-21T12:32:54;94557.31;;;12.02;59.98
83122;BME280;73002;47.238;9.006;2023-11-21T12:35:24;94572.13;;;12.28;60.48
83122;BME280;73002;47.238;9.006;2023-11-21T12:37:51;94569.72;;;12.27;60.16
83122;BME280;73002;47.238;9.006;2023-11-21T12:42:54;94556.06;;;12.31;59.81
83122;BME280;73002;47.238;9.006;2023-11-21T12:45:23;94560.84;;;12.41;58.56
83122;BME280;73002;47.238;9.006;2023-11-21T12:48:10;94566.09;;;11.88;56.97
83122;BME280;73002;47.238;9.006;2023-11-21T12:50:36;94567.09;;;12.20;55.97
83122;BME280;73002;47.238;9.006;2023-11-21T12:53:07;94566.28;;;12.40;54.52
83122;BME280;73002;47.238;9.006;2023-11-21T12:55:38;94562.09;;;12.32;55.49
83122;BME280;73002;47.238;9.006;2023-11-21T12:58:05;94573.53;;;12.18;55.57
83122;BME280;73002;47.238;9.006;2023-11-21T13:00:36;94576.31;;;12.36;55.38
83122;BME280;73002;47.238;9.006;2023-11-21T13:03:06;94564.94;;;12.04;57.18
83122;BME280;73002;47.238;9.006;2023-11-21T13:05:37;94570.03;;;12.50;57.11
83122;BME280;73002;47.238;9.006;2023-11-21T13:08:08;94566.28;;;12.40;57.07
83122;BME280;73002;47.238;9.006;2023-11-21T13:20:49;94575.22;;;12.64;56.44
83122;BME280;73002;47.238;9.006;2023-11-21T13:23:18;94566.16;;;12.73;55.94
83122;BME280;73002;47.238;9.006;2023-11-21T13:25:45;94581.94;;;12.33;57.25
83122;BME280;73002;47.238;9.006;2023-11-21T13:28:13;94580.13;;;12.20;58.71
83122;BME280;73002;47.238;9.006;2023-11-21T13:30:41;94574.56;;;12.17;58.15
83122;BME280;73002;47.238;9.006;2023-11-21T13:33:07;94583.13;;;12.37;58.17
83122;BME280;73002;47.238;9.006;2023-11-21T13:43:09;94588.53;;;12.42;57.74
83122;BME280;73002;47.238;9.006;2023-11-21T13:45:39;94590.75;;;12.39;58.28
83122;BME280;73002;47.238;9.006;2023-11-21T13:48:06;94591.94;;;12.43;57.14
83122;BME280;73002;47.238;9.006;2023-11-21T13:50:42;94586.53;;;12.31;57.95
83122;BME280;73002;47.238;9.006;2023-11-21T13:53:27;94594.53;;;12.49;58.39
83122;BME280;73002;47.238;9.006;2023-11-21T13:55:54;94594.75;;;12.41;58.17
83122;BME280;73002;47.238;9.006;2023-11-21T13:58:26;94598.63;;;12.05;59.25
83122;BME280;73002;47.238;9.006;2023-11-21T14:01:15;94601.59;;;12.29;58.61
83122;BME280;73002;47.238;9.006;2023-11-21T14:04:04;94589.56;;;12.15;58.77
83122;BME280;73002;47.238;9.006;2023-11-21T14:06:49;94601.63;;;12.09;59.28
83122;BME280;73002;47.238;9.006;2023-11-21T14:09:23;94604.81;;;12.18;59.46
83122;BME280;73002;47.238;9.006;2023-11-21T14:11:58;94615.03;;;11.99;60.17
83122;BME280;73002;47.238;9.006;2023-11-21T14:25:17;94620.28;;;11.92;60.62
83122;BME280;73002;47.238;9.006;2023-11-21T15:27:02;94650.59;;;11.32;61.96
83122;BME280;73002;47.238;9.006;2023-11-21T15:29:32;94666.59;;;11.29;61.37
83122;BME280;73002;47.238;9.006;2023-11-21T15:32:03;94670.72;;;11.10;61.49
83122;BME280;73002;47.238;9.006;2023-11-21T15:34:28;94676.22;;;11.28;61.54
83122;BME280;73002;47.238;9.006;2023-11-21T16:00:13;94696.84;;;10.88;61.39
83122;BME280;73002;47.238;9.006;2023-11-21T16:02:45;94698.31;;;10.98;60.99
83122;BME280;73002;47.238;9.006;2023-11-21T16:05:10;94697.94;;;11.01;60.85
83122;BME280;73002;47.238;9.006;2023-11-21T16:10:11;94709.00;;;10.81;61.26
83122;BME280;73002;47.238;9.006;2023-11-21T16:33:22;94722.59;;;10.48;60.66
83122;BME280;73002;47.238;9.006;2023-11-21T17:06:40;94763.66;;;10.53;62.23
83122;BME280;73002;47.238;9.006;2023-11-21T17:16:53;94764.22;;;10.27;62.58
83122;BME280;73002;47.238;9.006;2023-11-21T17:44:53;94784.75;;;10.65;61.58
83122;BME280;73002;47.238;9.006;2023-11-21T17:47:19;94788.59;;;10.69;61.14
83122;BME280;73002;47.238;9.006;2023-11-21T17:49:50;94779.31;;;10.60;61.33
83122;BME280;73002;47.238;9.006;2023-11-21T17:52:15;94778.53;;;10.66;60.89
83122;BME280;73002;47.238;9.006;2023-11-21T17:54:43;94776.13;;;10.36;61.30
83122;BME280;73002;47.238;9.006;2023-11-21T17:57:09;94783.47;;;10.32;61.64
83122;BME280;73002;47.238;9.006;2023-11-21T18:42:29;94824.69;;;10.35;63.46
83122;BME280;73002;47.238;9.006;2023-11-21T18:44:54;94832.94;;;10.39;62.75
83122;BME280;73002;47.238;9.006;2023-11-21T18:47:23;94827.91;;;10.37;62.73
83122;BME280;73002;47.238;9.006;2023-11-21T18:54:59;94845.94;;;10.24;62.67
83122;BME280;73002;47.238;9.006;2023-11-21T18:57:27;94848.00;;;10.29;62.52
83122;BME280;73002;47.238;9.006;2023-11-21T18:59:52;94845.59;;;10.27;62.96
83122;BME280;73002;47.238;9.006;2023-11-21T19:02:18;94846.53;;;10.41;62.38
83122;BME280;73002;47.238;9.006;2023-11-21T19:04:44;94846.19;;;10.08;62.42
83122;BME280;73002;47.238;9.006;2023-11-21T19:27:51;94863.28;;;10.17;60.87
83122;BME280;73002;47.238;9.006;2023-11-21T19:30:17;94861.34;;;10.04;61.59
83122;BME280;73002;47.238;9.006;2023-11-21T20:00:16;94904.78;;;9.95;64.44
83122;BME280;73002;47.238;9.006;2023-11-21T20:02:45;94906.41;;;10.11;63.62
83122;BME280;73002;47.238;9.006;2023-11-21T20:05:10;94917.59;;;10.12;64.11
83122;BME280;73002;47.238;9.006;2023-11-21T20:07:40;94909.06;;;10.03;64.22
83122;BME280;73002;47.238;9.006;2023-11-21T20:10:08;94921.88;;;10.20;63.98
83122;BME280;73002;47.238;9.006;2023-11-21T20:46:22;94966.31;;;9.65;63.52
83122;BME280;73002;47.238;9.006;2023-11-21T20:53:58;94969.75;;;9.95;62.38
83122;BME280;73002;47.238;9.006;2023-11-21T21:42:37;94971.28;;;9.22;61.85
83122;BME280;73002;47.238;9.006;2023-11-21T21:45:03;94983.03;;;9.33;62.13
83122;BME280;73002;47.238;9.006;2023-11-21T21:47:29;94992.63;;;9.47;61.66
83122;BME280;73002;47.238;9.006;2023-11-21T21:49:57;94981.53;;;9.53;61.75
83122;BME280;73002;47.238;9.006;2023-11-21T21:52:35;94991.47;;;9.50;61.48
83122;BME280;73002;47.238;9.006;2023-11-21T22:00:12;94991.28;;;9.51;61.95
83122;BME280;73002;47.238;9.006;2023-11-21T22:02:41;95003.09;;;9.39;62.73
83122;BME280;73002;47.238;9.006;2023-11-21T22:05:09;94990.34;;;9.29;63.00
83122;BME280;73002;47.238;9.006;2023-11-21T22:07:36;94986.53;;;9.40;62.93
83122;BME280;73002;47.238;9.006;2023-11-21T22:10:01;94994.75;;;9.44;62.83
83122;BME280;73002;47.238;9.006;2023-11-21T22:12:28;94999.38;;;9.56;62.37
83122;BME280;73002;47.238;9.006;2023-11-21T22:19:57;95003.69;;;9.03;64.12
83122;BME280;73002;47.238;9.006;2023-11-21T22:22:23;95012.09;;;9.05;63.68
83122;BME280;73002;47.238;9.006;2023-11-21T22:24:50;95016.81;;;9.25;63.26
83122;BME280;73002;47.238;9.006;2023-11-21T22:27:17;95018.66;;;9.39;62.86
